Time;durP1;ratioP1;P1;durP2;ratioP2;P2;SDS_P1;SDS_P2;PMS_P1;PMS_P2;Temp;Humidity;BMP_temperature;BMP_pressure;BME280_temperature;BME280_humidity;BME280_pressure;Samples;Min_cycle;Max_cycle;Signal;HPM_P1;HPM_P2
2022/05/16 00:02:21;;;;;;;15.57;4.70;;;17.30;99.90;;;;;;5094251;28;20020;-72
2022/05/16 00:04:49;;;;;;;23.50;4.68;;;17.20;99.90;;;;;;5094905;28;20621;-72
2022/05/16 00:07:17;;;;;;;19.40;4.43;;;17.30;99.90;;;;;;5094398;28;20414;-72
2022/05/16 00:09:42;;;;;;;18.42;4.93;;;17.30;99.90;;;;;;5094549;28;20103;-72
2022/05/16 00:12:09;;;;;;;16.60;4.50;;;17.20;99.90;;;;;;5094604;28;20102;-72
2022/05/16 00:14:36;;;;;;;20.00;4.57;;;17.30;99.90;;;;;;5094229;28;20456;-72
2022/05/16 00:17:02;;;;;;;13.85;4.35;;;17.20;99.90;;;;;;5093963;28;20020;-72
2022/05/16 00:19:29;;;;;;;19.75;4.53;;;17.20;99.90;;;;;;5094996;28;20021;-73
2022/05/16 00:21:55;;;;;;;16.13;4.55;;;17.10;99.90;;;;;;5110085;28;20540;-72
2022/05/16 00:24:26;;;;;;;16.95;4.70;;;17.10;99.90;;;;;;5114965;28;20048;-72
2022/05/16 00:26:53;;;;;;;16.10;4.20;;;17.20;99.90;;;;;;5114373;28;20022;-72
2022/05/16 00:29:19;;;;;;;17.63;4.95;;;17.10;99.90;;;;;;5114863;28;20027;-72
2022/05/16 00:31:45;;;;;;;17.48;4.63;;;17.20;99.90;;;;;;5113866;28;20031;-72
2022/05/16 00:34:11;;;;;;;16.80;4.32;;;17.20;99.90;;;;;;5106009;28;20044;-72
2022/05/16 00:36:37;;;;;;;20.95;5.75;;;17.20;99.90;;;;;;5093898;28;20471;-72
2022/05/16 00:39:03;;;;;;;13.30;4.03;;;17.10;99.90;;;;;;5093824;28;20039;-72
2022/05/16 00:41:29;;;;;;;22.13;5.15;;;17.20;99.90;;;;;;5102430;28;20024;-72
2022/05/16 00:43:58;;;;;;;19.42;4.80;;;17.20;99.90;;;;;;5112529;28;20016;-72
2022/05/16 00:46:26;;;;;;;15.05;5.07;;;17.10;99.90;;;;;;5093938;28;20095;-72
2022/05/16 00:48:52;;;;;;;23.42;5.32;;;17.20;99.90;;;;;;5093698;28;20045;-72
2022/05/16 00:51:22;;;;;;;17.77;4.22;;;17.20;99.90;;;;;;5093910;28;20103;-72
2022/05/16 00:53:54;;;;;;;16.42;4.05;;;17.30;99.90;;;;;;5094080;28;20020;-73
2022/05/16 00:56:21;;;;;;;18.73;5.03;;;17.20;99.90;;;;;;5093391;28;20062;-73
2022/05/16 00:58:49;;;;;;;15.60;4.57;;;17.30;99.90;;;;;;5093416;28;20028;-72
2022/05/16 01:06:45;;;;;;;18.30;5.00;;;17.30;99.90;;;;;;5093077;28;20149;-72
2022/05/16 01:09:10;;;;;;;21.52;5.13;;;17.40;99.90;;;;;;5093364;28;20103;-72
2022/05/16 01:11:38;;;;;;;21.13;4.72;;;17.40;99.90;;;;;;5093834;28;20531;-72
2022/05/16 01:14:04;;;;;;;17.05;5.25;;;17.40;99.90;;;;;;5092696;28;20387;-72
2022/05/16 01:16:30;;;;;;;23.45;4.43;;;17.40;99.90;;;;;;5093200;28;20031;-72
2022/05/16 01:18:55;;;;;;;18.45;5.32;;;17.30;99.90;;;;;;5093306;28;20024;-72
2022/05/16 01:21:24;;;;;;;14.40;4.25;;;17.40;99.90;;;;;;5092791;28;20032;-72
2022/05/16 01:23:55;;;;;;;20.63;4.90;;;17.40;99.90;;;;;;5092956;28;20031;-72
2022/05/16 01:26:25;;;;;;;17.50;4.67;;;17.20;99.90;;;;;;5092924;28;20020;-72
2022/05/16 01:28:51;;;;;;;21.42;5.75;;;17.30;99.90;;;;;;5093087;28;20023;-72
2022/05/16 01:31:17;;;;;;;14.07;4.55;;;17.30;99.90;;;;;;5092731;28;20042;-72
2022/05/16 01:33:43;;;;;;;21.00;5.07;;;17.20;99.90;;;;;;5092898;28;20079;-72
2022/05/16 01:36:09;;;;;;;20.15;4.68;;;17.30;99.90;;;;;;5092313;28;20063;-72
2022/05/16 01:38:35;;;;;;;16.17;5.05;;;17.10;99.90;;;;;;5093091;28;20038;-72
2022/05/16 01:41:08;;;;;;;16.02;4.82;;;17.10;99.90;;;;;;5092429;28;20034;-72
2022/05/16 01:43:38;;;;;;;17.70;5.68;;;17.20;99.90;;;;;;5092549;28;20028;-72
2022/05/16 01:46:05;;;;;;;18.17;4.72;;;17.10;99.90;;;;;;5092914;28;20502;-72
2022/05/16 01:48:31;;;;;;;18.77;5.05;;;17.10;99.90;;;;;;5092765;28;20530;-72
2022/05/16 01:51:00;;;;;;;17.65;5.15;;;17.10;99.90;;;;;;5092926;28;20102;-72
2022/05/16 01:53:26;;;;;;;21.20;4.47;;;17.10;99.90;;;;;;5092603;28;20024;-72
2022/05/16 01:55:52;;;;;;;18.33;4.97;;;17.10;99.90;;;;;;5092366;28;20036;-72
2022/05/16 01:58:18;;;;;;;23.30;5.75;;;17.10;99.90;;;;;;5091846;28;20552;-72
2022/05/16 02:00:43;;;;;;;19.35;5.07;;;17.10;99.90;;;;;;5092353;28;20499;-72
2022/05/16 02:03:10;;;;;;;24.17;4.55;;;17.00;99.90;;;;;;5092334;28;20103;-72
2022/05/16 02:05:36;;;;;;;25.08;5.22;;;17.00;99.90;;;;;;5092216;28;20015;-72
2022/05/16 02:08:02;;;;;;;19.52;4.80;;;17.10;99.90;;;;;;5092274;28;20066;-72
2022/05/16 02:10:29;;;;;;;18.00;4.95;;;17.00;99.90;;;;;;5092210;28;20028;-72
2022/05/16 02:12:59;;;;;;;19.00;5.13;;;17.00;99.90;;;;;;5092059;28;20048;-72
2022/05/16 02:15:27;;;;;;;17.73;4.65;;;16.90;99.90;;;;;;5091745;28;20024;-72
2022/05/16 02:17:54;;;;;;;21.48;4.78;;;16.90;99.90;;;;;;5104571;28;20165;-72
2022/05/16 02:20:20;;;;;;;18.58;4.45;;;16.90;99.90;;;;;;5111866;28;20095;-72
2022/05/16 02:25:37;;;;;;;17.58;5.53;;;16.90;99.90;;;;;;5091580;28;20438;-72
2022/05/16 02:28:04;;;;;;;13.93;4.55;;;16.80;99.90;;;;;;5091662;28;20380;-72
2022/05/16 02:30:30;;;;;;;17.38;4.70;;;16.80;99.90;;;;;;5092590;28;20391;-72
2022/05/16 02:32:56;;;;;;;19.25;5.10;;;16.80;99.90;;;;;;5092156;28;20028;-72
2022/05/16 02:35:22;;;;;;;20.88;5.57;;;16.80;99.90;;;;;;5091064;28;20483;-72
2022/05/16 02:37:48;;;;;;;18.83;4.47;;;16.80;99.90;;;;;;5092142;28;20028;-72
2022/05/16 02:40:14;;;;;;;21.58;5.18;;;16.80;99.90;;;;;;5091982;28;20472;-72
2022/05/16 02:42:40;;;;;;;25.20;6.15;;;16.80;99.90;;;;;;5091701;28;20020;-72
2022/05/16 02:45:06;;;;;;;16.70;4.97;;;16.80;99.90;;;;;;5091816;28;20024;-72
2022/05/16 02:47:32;;;;;;;15.70;4.53;;;16.80;99.90;;;;;;5091961;28;20024;-72
2022/05/16 02:49:58;;;;;;;21.58;4.97;;;16.80;99.90;;;;;;5091752;28;20062;-72
2022/05/16 02:52:24;;;;;;;20.50;4.97;;;16.80;99.90;;;;;;5091597;28;20024;-72
2022/05/16 02:54:51;;;;;;;22.70;4.68;;;16.80;99.90;;;;;;5091929;28;20032;-72
2022/05/16 02:57:17;;;;;;;25.95;5.32;;;16.80;99.90;;;;;;5091369;28;20219;-72
2022/05/16 02:59:43;;;;;;;13.82;5.18;;;16.70;99.90;;;;;;5092042;28;20047;-72
2022/05/16 03:02:10;;;;;;;20.00;5.13;;;16.60;99.90;;;;;;5092150;28;20471;-72
2022/05/16 03:04:37;;;;;;;20.02;5.68;;;16.60;99.90;;;;;;5092406;28;20028;-72
2022/05/16 03:07:04;;;;;;;16.48;5.68;;;16.70;99.90;;;;;;5112196;28;20152;-72
2022/05/16 03:09:30;;;;;;;23.17;4.97;;;16.60;99.90;;;;;;5106271;28;20028;-72
2022/05/16 03:11:56;;;;;;;18.42;4.88;;;16.60;99.90;;;;;;5091899;28;20023;-72
2022/05/16 03:14:21;;;;;;;18.77;5.25;;;16.50;99.90;;;;;;5091375;28;20028;-72
2022/05/16 03:16:47;;;;;;;25.67;5.22;;;16.50;99.90;;;;;;5092522;28;20475;-72
2022/05/16 03:19:14;;;;;;;19.67;5.63;;;16.40;99.90;;;;;;5095770;28;20023;-72
2022/05/16 03:21:40;;;;;;;19.65;4.78;;;16.40;99.90;;;;;;5095412;28;20020;-72
2022/05/16 03:24:07;;;;;;;16.83;4.20;;;16.40;99.90;;;;;;5098175;28;20015;-73
2022/05/16 03:26:33;;;;;;;21.55;5.63;;;16.30;99.90;;;;;;5115512;28;20026;-72
2022/05/16 03:28:59;;;;;;;23.08;5.40;;;16.40;99.90;;;;;;5100553;28;20024;-72
2022/05/16 03:31:25;;;;;;;17.08;4.82;;;16.40;99.90;;;;;;5095264;28;20522;-72
2022/05/16 03:33:51;;;;;;;22.35;5.75;;;16.40;99.90;;;;;;5095293;28;20044;-72
2022/05/16 03:36:17;;;;;;;15.63;5.18;;;16.30;99.90;;;;;;5095138;28;20109;-72
2022/05/16 03:41:26;;;;;;;21.42;4.93;;;16.40;99.90;;;;;;5095501;28;20077;-72
2022/05/16 03:43:52;;;;;;;20.60;6.28;;;16.40;99.90;;;;;;5094854;28;20032;-72
2022/05/16 03:46:18;;;;;;;25.17;5.88;;;16.20;99.90;;;;;;5094558;28;20044;-72
2022/05/16 03:48:44;;;;;;;22.17;4.88;;;16.20;99.90;;;;;;5095289;28;20102;-72
2022/05/16 03:51:11;;;;;;;18.50;4.95;;;16.30;99.90;;;;;;5095154;28;20071;-73
2022/05/16 03:53:46;;;;;;;23.67;5.68;;;16.30;99.90;;;;;;5095037;28;20418;-73
2022/05/16 03:56:16;;;;;;;22.23;5.78;;;16.20;99.90;;;;;;5094721;28;20024;-72
2022/05/16 03:58:42;;;;;;;20.67;5.72;;;16.20;99.90;;;;;;5095350;28;20027;-72
2022/05/16 04:01:08;;;;;;;23.15;5.70;;;16.20;99.90;;;;;;5094691;28;20024;-72
2022/05/16 04:03:34;;;;;;;28.00;5.93;;;16.00;99.90;;;;;;5094474;28;20051;-72
2022/05/16 04:06:00;;;;;;;15.30;5.13;;;16.00;99.90;;;;;;5094692;28;20039;-72
2022/05/16 04:08:26;;;;;;;13.63;4.90;;;16.00;99.90;;;;;;5094334;28;20020;-72
2022/05/16 04:10:52;;;;;;;26.17;5.40;;;15.90;99.90;;;;;;5094456;28;20024;-72
2022/05/16 04:13:18;;;;;;;16.73;5.40;;;15.90;99.90;;;;;;5094890;28;20032;-72
2022/05/16 04:15:43;;;;;;;18.23;5.18;;;15.90;99.90;;;;;;5094325;28;20028;-73
2022/05/16 04:18:09;;;;;;;22.45;6.47;;;15.90;99.90;;;;;;5093647;28;20028;-72
2022/05/16 04:20:35;;;;;;;17.52;5.38;;;15.90;99.90;;;;;;5093940;28;20474;-72
2022/05/16 04:23:00;;;;;;;20.00;5.30;;;15.90;99.90;;;;;;5094343;28;20035;-72
2022/05/16 04:25:26;;;;;;;20.77;5.63;;;16.00;99.90;;;;;;5094110;28;20177;-72
2022/05/16 04:27:52;;;;;;;23.73;6.05;;;16.00;99.90;;;;;;5093911;28;20066;-72
2022/05/16 04:30:17;;;;;;;21.40;6.53;;;15.90;99.90;;;;;;5094607;28;20103;-72
2022/05/16 04:32:43;;;;;;;20.70;5.70;;;15.90;99.90;;;;;;5094253;28;20024;-72
2022/05/16 04:35:09;;;;;;;22.45;6.15;;;15.90;99.90;;;;;;5071583;28;20041;-72
2022/05/16 04:37:35;;;;;;;24.90;6.30;;;15.90;99.90;;;;;;5072469;28;20028;-72
2022/05/16 04:40:04;;;;;;;18.42;5.15;;;15.80;99.90;;;;;;5072528;28;20051;-72
2022/05/16 04:42:43;;;;;;;17.77;5.43;;;15.90;99.90;;;;;;5072136;28;20112;-73
2022/05/16 04:45:19;;;;;;;22.30;6.15;;;15.90;99.90;;;;;;5058089;28;20028;-72
2022/05/16 04:47:46;;;;;;;18.15;5.22;;;15.80;99.90;;;;;;5079865;28;20458;-72
2022/05/16 04:50:16;;;;;;;25.40;6.00;;;15.70;99.90;;;;;;5072873;28;20027;-72
2022/05/16 04:52:41;;;;;;;21.67;5.45;;;15.80;99.90;;;;;;5078787;28;20561;-72
2022/05/16 04:55:08;;;;;;;28.45;7.13;;;15.70;99.90;;;;;;5073410;28;20029;-73
2022/05/16 04:57:34;;;;;;;23.05;6.72;;;15.70;99.90;;;;;;5071664;28;20381;-72
2022/05/16 05:00:00;;;;;;;24.80;6.43;;;15.70;99.90;;;;;;5083329;28;20047;-72
2022/05/16 05:02:26;;;;;;;18.15;5.80;;;15.60;99.90;;;;;;5074210;28;20052;-72
2022/05/16 05:04:52;;;;;;;19.73;6.47;;;15.60;99.90;;;;;;5080506;28;20024;-72
2022/05/16 05:07:18;;;;;;;24.80;6.32;;;15.80;99.90;;;;;;5072626;28;20033;-72
2022/05/16 05:15:14;;;;;;;26.27;6.07;;;15.70;99.90;;;;;;5072255;28;20031;-72
2022/05/16 05:17:41;;;;;;;25.70;6.85;;;15.70;99.90;;;;;;5069095;28;20128;-72
2022/05/16 05:20:12;;;;;;;20.73;5.90;;;15.80;99.90;;;;;;5071690;28;20058;-72
2022/05/16 05:22:45;;;;;;;;;;;15.70;99.90;;;;;;5071953;28;20455;-72
2022/05/16 05:25:13;;;;;;;19.70;5.38;;;15.80;99.90;;;;;;5071822;28;20371;-72
2022/05/16 05:27:40;;;;;;;20.13;6.10;;;15.90;99.90;;;;;;5071410;28;20052;-72
2022/05/16 05:30:10;;;;;;;17.02;6.10;;;15.80;99.90;;;;;;5071974;28;20029;-72
2022/05/16 05:32:37;;;;;;;19.80;6.45;;;15.90;99.90;;;;;;5072270;28;20028;-72
2022/05/16 05:35:04;;;;;;;28.50;7.32;;;15.90;99.90;;;;;;5086148;28;20044;-72
2022/05/16 05:37:30;;;;;;;18.67;6.07;;;15.90;99.90;;;;;;5091352;28;20016;-72
2022/05/16 05:40:00;;;;;;;25.75;6.38;;;16.00;99.90;;;;;;5090978;28;20053;-72
2022/05/16 05:42:26;;;;;;;28.08;5.72;;;16.10;99.90;;;;;;5093836;28;20051;-72
2022/05/16 05:47:28;;;;;;;20.02;6.22;;;16.30;99.90;;;;;;5488322;22;20397;-75
2022/05/16 06:52:43;;;;;;;25.08;5.80;;;17.90;99.90;;;;;;6020972;23;20862;-76
2022/05/16 06:55:10;;;;;;;29.05;7.15;;;18.10;99.90;;;;;;4947184;28;20035;-76
2022/05/16 06:57:37;;;;;;;28.52;7.03;;;18.20;99.90;;;;;;4955613;29;21350;-76
2022/05/16 07:00:06;;;;;;;22.45;5.72;;;18.30;99.90;;;;;;4963112;28;20015;-76
2022/05/16 07:02:32;;;;;;;21.65;6.60;;;18.40;99.90;;;;;;4957698;28;20027;-76
2022/05/16 07:04:58;;;;;;;16.00;5.80;;;18.40;99.90;;;;;;4955338;29;20066;-77
2022/05/16 07:07:24;;;;;;;21.73;6.20;;;18.50;99.90;;;;;;4974170;28;20066;-76
2022/05/16 07:09:50;;;;;;;27.02;6.55;;;18.50;99.90;;;;;;4964315;28;20027;-76
2022/05/16 07:12:16;;;;;;;23.27;7.07;;;18.50;99.90;;;;;;4956055;28;20031;-76
2022/05/16 07:14:41;;;;;;;27.65;7.00;;;18.70;99.90;;;;;;4957234;28;20406;-76
2022/05/16 07:17:07;;;;;;;23.17;5.90;;;18.80;99.90;;;;;;4960424;28;21344;-76
2022/05/16 08:02:00;;;;;;;22.40;6.38;;;20.00;99.90;;;;;;5805844;23;20093;-76
2022/05/16 08:04:26;;;;;;;22.20;6.15;;;20.20;99.90;;;;;;4966387;28;20027;-76
2022/05/16 08:06:52;;;;;;;14.27;5.63;;;20.50;99.90;;;;;;4970318;28;20027;-76
2022/05/16 08:12:02;;;;;;;19.70;6.03;;;20.80;99.90;;;;;;4971467;28;20054;-75
2022/05/16 08:14:29;;;;;;;15.52;5.80;;;20.90;99.90;;;;;;4966430;28;20018;-76
2022/05/16 08:16:54;;;;;;;18.23;6.05;;;21.00;99.90;;;;;;4975572;28;20089;-75
2022/05/16 08:19:20;;;;;;;26.60;6.47;;;21.00;99.90;;;;;;4973529;28;20030;-76
2022/05/16 08:21:48;;;;;;;15.30;5.60;;;20.90;99.90;;;;;;4974426;28;20023;-76
2022/05/16 08:24:14;;;;;;;20.23;5.85;;;21.40;99.90;;;;;;4972923;28;20031;-76
2022/05/16 08:26:40;;;;;;;19.17;6.78;;;21.50;99.90;;;;;;4975760;28;20494;-75
2022/05/16 08:29:06;;;;;;;18.60;6.80;;;21.80;99.90;;;;;;4968543;28;20026;-75
2022/05/16 08:31:32;;;;;;;19.20;5.93;;;22.10;99.90;;;;;;4968212;28;20081;-76
2022/05/16 08:33:58;;;;;;;23.13;5.88;;;22.00;99.90;;;;;;4972022;28;20474;-76
2022/05/16 08:42:02;;;;;;;22.08;5.80;;;22.50;99.90;;;;;;4971739;28;20139;-75
2022/05/16 08:44:41;;;;;;;22.05;6.38;;;23.00;99.90;;;;;;4974542;28;20065;-75
2022/05/16 08:47:25;;;;;;;16.13;5.78;;;22.90;99.90;;;;;;4973147;28;20394;-76
2022/05/16 08:49:56;;;;;;;19.33;5.95;;;23.10;99.90;;;;;;4975180;28;20027;-76
2022/05/16 08:52:41;;;;;;;18.67;5.65;;;23.70;99.90;;;;;;4972096;28;20430;-76
2022/05/16 08:55:16;;;;;;;19.10;5.70;;;23.80;99.90;;;;;;4971199;28;20082;-75
2022/05/16 08:57:47;;;;;;;17.05;5.90;;;24.20;99.90;;;;;;4973412;28;20022;-76
2022/05/16 09:00:32;;;;;;;14.60;5.43;;;23.40;99.90;;;;;;4953466;28;20471;-74
2022/05/16 09:03:00;;;;;;;21.10;6.15;;;23.10;99.90;;;;;;4963271;28;20042;-74
2022/05/16 09:05:35;;;;;;;14.43;5.35;;;23.70;99.90;;;;;;4954474;29;20074;-75
2022/05/16 09:08:01;;;;;;;20.83;5.43;;;24.30;99.90;;;;;;4950879;28;20023;-75
2022/05/16 09:10:53;;;;;;;22.98;5.78;;;24.40;99.40;;;;;;4955203;28;20019;-75
2022/05/16 09:13:34;;;;;;;17.10;5.05;;;25.00;98.70;;;;;;4945165;28;20187;-75
2022/05/16 09:16:16;;;;;;;19.67;5.95;;;25.10;97.10;;;;;;4935768;29;20059;-75
2022/05/16 09:19:01;;;;;;;15.05;4.82;;;24.90;97.60;;;;;;4952654;29;20019;-75
2022/05/16 09:21:44;;;;;;;15.65;5.32;;;24.80;97.20;;;;;;4947309;28;20031;-75
2022/05/16 09:24:21;;;;;;;16.27;5.07;;;25.10;96.90;;;;;;4944487;29;20027;-75
2022/05/16 09:26:57;;;;;;;15.40;5.55;;;25.40;96.00;;;;;;4927818;29;20510;-75
2022/05/16 09:29:23;;;;;;;14.98;5.03;;;25.30;96.90;;;;;;4951077;28;20054;-75
2022/05/16 09:31:52;;;;;;;16.35;5.63;;;25.20;96.20;;;;;;4951111;28;20488;-75
2022/05/16 09:34:18;;;;;;;13.88;4.72;;;24.90;97.30;;;;;;4945149;29;20082;-75
2022/05/16 09:36:48;;;;;;;16.05;5.28;;;24.60;97.60;;;;;;4951582;28;20038;-75
2022/05/16 09:39:22;;;;;;;14.00;5.85;;;25.30;96.90;;;;;;4950073;28;20023;-73
2022/05/16 09:42:12;;;;;;;16.50;5.65;;;25.70;96.20;;;;;;4935165;29;20554;-73
2022/05/16 09:44:47;;;;;;;19.20;5.78;;;25.20;96.50;;;;;;4949266;29;20537;-77
2022/05/16 09:47:19;;;;;;;18.05;4.80;;;25.30;95.30;;;;;;4954523;29;20150;-79
2022/05/16 09:50:05;;;;;;;19.75;5.07;;;25.60;95.70;;;;;;4949790;28;20031;-79
2022/05/16 09:52:33;;;;;;;17.00;5.45;;;25.20;96.00;;;;;;4938634;29;20051;-79
2022/05/16 09:55:30;;;;;;;15.43;5.15;;;25.50;95.00;;;;;;4951383;29;20032;-80
2022/05/16 09:58:12;;;;;;;20.00;5.70;;;25.70;95.40;;;;;;4953562;29;20362;-79
2022/05/16 10:00:44;;;;;;;15.20;5.03;;;25.90;96.60;;;;;;4948310;28;20023;-79
2022/05/16 10:03:28;;;;;;;26.40;6.20;;;26.10;96.00;;;;;;4941294;29;20546;-79
2022/05/16 10:05:57;;;;;;;17.35;5.18;;;26.70;94.20;;;;;;4953617;28;20067;-79
2022/05/16 10:08:42;;;;;;;15.43;5.28;;;25.40;95.50;;;;;;4966637;28;20027;-78
2022/05/16 10:11:15;;;;;;;23.25;5.50;;;26.00;94.00;;;;;;4957392;28;20029;-79
2022/05/16 10:13:41;;;;;;;15.02;5.15;;;26.50;93.10;;;;;;4943021;29;20082;-79
2022/05/16 10:16:09;;;;;;;16.00;4.80;;;26.70;93.10;;;;;;4944509;29;20055;-82
2022/05/16 10:18:57;;;;;;;16.98;5.68;;;26.30;92.90;;;;;;4954742;29;20102;-78
2022/05/16 10:21:41;;;;;;;15.05;4.95;;;26.50;94.50;;;;;;4952611;29;20031;-79
2022/05/16 10:24:11;;;;;;;18.75;4.70;;;26.90;93.50;;;;;;4934932;29;20038;-79
2022/05/16 10:26:44;;;;;;;16.00;5.63;;;26.40;93.80;;;;;;4950963;28;20050;-79
2022/05/16 10:29:42;;;;;;;19.65;4.97;;;26.30;94.10;;;;;;4950815;29;20038;-79
2022/05/16 10:35:08;;;;;;;17.48;5.75;;;27.30;92.40;;;;;;4935536;29;20146;-79
2022/05/16 10:37:41;;;;;;;18.05;5.28;;;27.70;91.80;;;;;;4945164;29;20122;-75
2022/05/16 10:40:10;;;;;;;17.67;4.90;;;27.20;91.10;;;;;;4951640;29;20043;-79
2022/05/16 10:42:49;;;;;;;11.57;5.05;;;27.10;92.00;;;;;;4944232;29;20046;-79
2022/05/16 10:45:21;;;;;;;15.27;5.00;;;27.10;92.50;;;;;;4952622;28;20055;-79
2022/05/16 10:47:57;;;;;;;11.93;5.35;;;27.30;92.10;;;;;;4931124;29;20509;-79
2022/05/16 10:50:36;;;;;;;23.42;5.30;;;27.40;91.20;;;;;;4954424;29;20033;-80
2022/05/16 10:53:19;;;;;;;16.67;5.65;;;27.10;91.80;;;;;;4953198;29;20070;-81
2022/05/16 10:56:06;;;;;;;14.20;4.60;;;27.10;91.20;;;;;;4944208;28;20039;-79
2022/05/16 10:58:50;;;;;;;13.70;4.93;;;27.50;90.90;;;;;;4952876;29;20065;-79
2022/05/16 11:01:35;;;;;;;18.73;5.85;;;27.50;90.60;;;;;;4950630;28;20024;-80
2022/05/16 11:04:19;;;;;;;17.42;5.10;;;27.10;90.30;;;;;;4947790;29;20046;-80
2022/05/16 11:07:02;;;;;;;16.48;5.00;;;27.20;90.80;;;;;;4954172;29;20458;-80
2022/05/16 11:09:46;;;;;;;22.65;4.97;;;27.40;91.30;;;;;;4952716;28;20035;-80
2022/05/16 11:12:20;;;;;;;20.33;5.28;;;27.90;89.10;;;;;;4935928;29;20059;-80
2022/05/16 11:15:00;;;;;;;17.52;5.20;;;28.00;89.60;;;;;;4938725;29;20058;-80
2022/05/16 11:17:36;;;;;;;12.30;4.45;;;27.90;90.00;;;;;;4934514;29;20027;-79
2022/05/16 11:20:15;;;;;;;13.98;4.72;;;28.00;87.80;;;;;;4952435;29;20450;-80
2022/05/16 11:23:09;;;;;;;14.82;5.60;;;27.60;89.30;;;;;;4953478;29;20055;-80
2022/05/16 11:25:48;;;;;;;12.52;4.63;;;28.10;90.30;;;;;;4841319;29;21484;-80
2022/05/16 11:28:22;;;;;;;17.63;5.07;;;28.00;90.30;;;;;;4848443;29;20112;-79
2022/05/16 11:30:59;;;;;;;13.70;5.35;;;27.80;87.20;;;;;;4852690;29;20089;-79
2022/05/16 11:33:53;;;;;;;14.35;4.80;;;28.00;86.70;;;;;;4852643;29;20042;-80
2022/05/16 11:36:49;;;;;;;13.80;5.30;;;27.00;90.00;;;;;;4848402;29;20445;-80
2022/05/16 11:39:30;;;;;;;12.50;5.10;;;27.30;89.40;;;;;;4847366;29;20155;-80
2022/05/16 11:42:16;;;;;;;13.68;5.00;;;27.90;89.10;;;;;;4852003;29;20058;-80
2022/05/16 11:45:11;;;;;;;13.05;4.30;;;28.60;86.20;;;;;;4866600;29;20032;-80
2022/05/16 11:47:45;;;;;;;15.73;5.13;;;28.30;85.60;;;;;;4866917;29;20396;-79
2022/05/16 11:50:30;;;;;;;15.68;5.13;;;28.10;85.60;;;;;;4872010;29;20038;-78
2022/05/16 11:52:56;;;;;;;12.35;5.20;;;27.80;85.60;;;;;;4864372;29;20044;-79
2022/05/16 12:01:00;;;;;;;12.48;4.05;;;28.70;83.80;;;;;;4878511;29;20040;-79
2022/05/16 12:03:44;;;;;;;15.93;4.78;;;28.80;83.70;;;;;;4952717;28;20517;-80
2022/05/16 12:06:54;;;;;;;15.25;4.22;;;28.30;79.90;;;;;;4952004;29;20031;-80
2022/05/16 12:09:23;;;;;;;16.17;4.07;;;28.30;83.50;;;;;;4935382;28;20407;-79
2022/05/16 12:12:04;;;;;;;14.10;4.75;;;28.40;80.20;;;;;;4956124;29;20483;-80
2022/05/16 12:14:36;;;;;;;14.98;4.75;;;28.20;81.20;;;;;;4935795;29;20514;-80
2022/05/16 12:17:07;;;;;;;17.08;5.13;;;28.70;82.00;;;;;;4972553;28;20023;-79
2022/05/16 12:19:39;;;;;;;13.13;4.55;;;28.70;79.10;;;;;;4940137;29;20023;-79
2022/05/16 12:22:08;;;;;;;16.65;4.47;;;28.10;81.10;;;;;;4946864;29;20038;-80
2022/05/16 12:24:52;;;;;;;12.55;4.13;;;28.50;78.60;;;;;;4936714;29;20031;-80
2022/05/16 12:27:38;;;;;;;16.00;4.38;;;28.00;77.80;;;;;;4954786;28;20525;-80
2022/05/16 12:30:35;;;;;;;17.25;4.05;;;28.40;77.30;;;;;;4953067;28;20079;-80
2022/05/16 12:33:01;;;;;;;13.40;4.70;;;28.70;77.90;;;;;;4942982;29;20073;-80
2022/05/16 12:35:27;;;;;;;15.50;4.18;;;28.70;77.90;;;;;;4953463;29;20027;-79
2022/05/16 12:37:54;;;;;;;14.43;4.50;;;28.90;80.40;;;;;;4955704;29;20035;-80
2022/05/16 12:40:35;;;;;;;14.40;4.72;;;29.10;78.90;;;;;;4943561;28;20026;-80
2022/05/16 12:43:20;;;;;;;14.13;4.47;;;29.10;77.20;;;;;;4947616;29;20578;-80
2022/05/16 12:45:58;;;;;;;14.95;4.68;;;29.00;76.20;;;;;;4950021;28;20483;-80
2022/05/16 12:48:51;;;;;;;14.88;4.32;;;28.50;76.20;;;;;;4955779;28;20074;-79
2022/05/16 12:51:22;;;;;;;12.55;3.97;;;28.90;75.90;;;;;;4954137;29;20043;-80
2022/05/16 12:54:07;;;;;;;31.25;5.15;;;28.70;75.90;;;;;;4964530;28;20030;-79
2022/05/16 12:56:50;;;;;;;17.05;4.63;;;28.50;75.20;;;;;;4965319;28;20075;-80
2022/05/16 12:59:34;;;;;;;12.85;4.70;;;28.20;75.20;;;;;;4944139;28;20023;-79
2022/05/16 13:02:05;;;;;;;18.13;4.90;;;28.60;75.20;;;;;;4946351;28;20044;-81
2022/05/16 13:04:49;;;;;;;15.13;4.57;;;28.60;74.80;;;;;;4936193;29;20303;-80
2022/05/16 13:07:44;;;;;;;14.95;4.68;;;28.90;74.60;;;;;;4963642;28;20031;-76
2022/05/16 13:10:30;;;;;;;9.38;3.72;;;29.20;73.30;;;;;;4863629;29;20046;-80
2022/05/16 13:13:09;;;;;;;7.47;3.10;;;28.70;70.50;;;;;;4865739;29;20033;-80
2022/05/16 13:15:53;;;;;;;11.07;3.88;;;28.50;69.40;;;;;;4878000;29;20519;-79
2022/05/16 13:18:45;;;;;;;16.45;3.70;;;28.30;69.70;;;;;;4846555;29;20081;-79
2022/05/16 13:21:14;;;;;;;12.20;3.65;;;28.70;72.50;;;;;;4840053;29;20046;-79
2022/05/16 13:23:40;;;;;;;11.80;3.25;;;28.80;70.80;;;;;;4858692;29;20030;-79
2022/05/16 13:31:55;;;;;;;10.80;3.13;;;28.50;68.40;;;;;;4836713;29;20050;-79
2022/05/16 13:34:51;;;;;;;11.40;3.45;;;28.10;71.40;;;;;;4835900;29;20081;-80
2022/05/16 13:37:20;;;;;;;12.27;3.72;;;28.00;71.20;;;;;;4832675;29;20026;-80
2022/05/16 13:39:50;;;;;;;8.35;3.35;;;27.90;71.00;;;;;;4834341;29;20124;-80
2022/05/16 13:42:21;;;;;;;11.32;3.58;;;28.00;68.40;;;;;;4846920;29;20040;-80
2022/05/16 13:44:47;;;;;;;15.25;4.78;;;28.50;69.20;;;;;;4822438;29;20386;-80
2022/05/16 13:47:18;;;;;;;11.65;3.20;;;28.90;66.60;;;;;;4862196;29;20065;-80
2022/05/16 13:49:44;;;;;;;10.25;3.65;;;29.00;67.90;;;;;;4921881;29;20042;-80
2022/05/16 13:52:36;;;;;;;10.70;3.22;;;29.10;62.60;;;;;;4931642;29;20114;-80
2022/05/16 13:55:05;;;;;;;10.25;3.17;;;29.20;66.70;;;;;;4919559;29;20050;-80
2022/05/16 13:57:31;;;;;;;10.80;3.42;;;29.20;64.60;;;;;;4905320;29;20034;-80
2022/05/16 14:00:21;;;;;;;10.40;3.83;;;29.20;65.80;;;;;;4907019;29;20032;-79
2022/05/16 14:02:55;;;;;;;9.75;3.13;;;29.30;64.60;;;;;;4915410;29;20054;-80
2022/05/16 14:05:40;;;;;;;13.73;3.80;;;28.90;63.90;;;;;;4902492;29;20131;-80
2022/05/16 14:08:26;;;;;;;9.98;3.50;;;28.80;65.30;;;;;;4933149;28;20043;-79
2022/05/16 14:10:53;;;;;;;13.80;3.33;;;28.50;65.60;;;;;;4954853;28;20421;-79
2022/05/16 14:13:24;;;;;;;17.08;3.10;;;28.30;65.70;;;;;;4950774;28;20071;-79
2022/05/16 14:15:57;;;;;;;11.98;3.78;;;28.50;66.70;;;;;;4945501;29;20538;-80
2022/05/16 14:18:58;;;;;;;10.00;3.17;;;28.60;63.70;;;;;;4951369;29;20063;-81
2022/05/16 14:21:26;;;;;;;;;;;29.00;62.20;;;;;;4944724;28;20023;-79
2022/05/16 14:24:00;;;;;;;13.95;3.05;;;29.40;62.30;;;;;;4951062;28;20009;-80
2022/05/16 14:26:48;;;;;;;10.98;2.95;;;29.50;62.60;;;;;;4944043;29;20042;-79
2022/05/16 14:29:22;;;;;;;8.13;3.50;;;29.60;62.80;;;;;;4954203;28;20027;-79
2022/05/16 14:32:09;;;;;;;10.70;3.75;;;29.30;63.00;;;;;;4958950;28;20114;-79
2022/05/16 14:34:40;;;;;;;13.52;3.70;;;29.30;64.60;;;;;;4949955;29;20066;-79
2022/05/16 14:37:22;;;;;;;11.77;3.63;;;29.50;64.40;;;;;;4945394;29;20034;-79
2022/05/16 14:39:52;;;;;;;;;;;29.00;66.20;;;;;;4947011;28;20083;-79
2022/05/16 14:42:21;;;;;;;14.30;4.13;;;28.90;65.60;;;;;;4946619;29;19997;-79
2022/05/16 14:45:09;;;;;;;12.45;3.40;;;29.00;64.60;;;;;;4956414;28;20356;-79
2022/05/16 14:47:41;;;;;;;12.98;3.35;;;29.10;63.40;;;;;;4935143;29;20131;-79
2022/05/16 14:50:07;;;;;;;13.77;3.72;;;29.10;65.30;;;;;;4947689;28;20536;-80
2022/05/16 14:52:34;;;;;;;13.90;3.65;;;28.90;63.40;;;;;;4932825;29;20081;-80
2022/05/16 14:55:05;;;;;;;11.25;3.00;;;28.60;65.10;;;;;;4954223;29;20483;-79
2022/05/16 14:57:31;;;;;;;12.10;3.13;;;28.90;64.00;;;;;;4952848;28;20030;-79
2022/05/16 14:59:57;;;;;;;12.68;3.85;;;28.90;62.30;;;;;;4951739;28;20039;-79
2022/05/16 15:05:07;;;;;;;6.75;2.60;;;28.50;63.80;;;;;;4945658;29;20542;-83
2022/05/16 15:07:37;;;;;;;16.50;3.10;;;28.40;62.70;;;;;;4950362;29;20023;-79
2022/05/16 15:10:05;;;;;;;18.02;3.28;;;28.50;62.60;;;;;;4951784;29;20425;-80
2022/05/16 15:12:32;;;;;;;13.02;3.53;;;28.80;63.00;;;;;;4942179;29;20094;-79
2022/05/16 15:14:57;;;;;;;9.00;3.08;;;29.00;61.70;;;;;;4964470;28;20478;-79
2022/05/16 15:17:23;;;;;;;11.77;3.42;;;28.80;63.00;;;;;;4930851;29;20034;-78
2022/05/16 15:19:48;;;;;;;15.02;3.50;;;28.90;63.00;;;;;;4949263;28;20475;-79
2022/05/16 15:22:17;;;;;;;10.45;3.53;;;28.60;60.00;;;;;;4943453;29;20023;-78
2022/05/16 15:24:55;;;;;;;15.38;3.60;;;28.40;61.30;;;;;;4946979;29;20087;-79
2022/05/16 15:27:23;;;;;;;16.05;3.47;;;28.90;62.80;;;;;;4948924;29;20099;-81
2022/05/16 15:29:50;;;;;;;10.95;3.22;;;29.10;61.20;;;;;;4947461;29;20016;-79
2022/05/16 15:32:16;;;;;;;12.68;3.15;;;29.00;61.10;;;;;;4942026;29;20020;-79